Time;durP1;ratioP1;P1;durP2;ratioP2;P2;SDS_P1;SDS_P2;PMS_P1;PMS_P2;Temp;Humidity;BMP_temperature;BMP_pressure;BME280_temperature;BME280_humidity;BME280_pressure;Samples;Min_cycle;Max_cycle;Signal;HPM_P1;HPM_P2
2022/01/30 00:02:44;;;;;;;8.40;4.85;;;;;;;;;;10529839;28;20067;-71
2022/01/30 00:07:44;;;;;;;17.13;5.97;;;;;;;;;;10512358;28;20036;-71
2022/01/30 00:17:52;;;;;;;22.90;9.27;;;;;;;;;;10531116;28;20047;-72
2022/01/30 00:23:10;;;;;;;16.92;10.20;;;;;;;;;;10529168;28;20082;-73
2022/01/30 00:28:14;;;;;;;19.20;11.03;;;;;;;;;;10530359;28;20028;-71
2022/01/30 00:33:15;;;;;;;23.08;12.80;;;;;;;;;;10511946;28;20120;-72
2022/01/30 00:38:15;;;;;;;22.45;11.68;;;;;;;;;;10512194;28;20032;-73
2022/01/30 00:43:17;;;;;;;17.63;11.32;;;;;;;;;;10511751;28;20032;-72
2022/01/30 00:48:17;;;;;;;18.30;8.60;;;;;;;;;;10529722;28;20478;-72
2022/01/30 00:53:18;;;;;;;16.23;9.37;;;;;;;;;;10532200;28;20028;-72
2022/01/30 00:58:18;;;;;;;17.02;9.30;;;;;;;;;;10520233;28;20262;-71
2022/01/30 01:03:18;;;;;;;24.10;10.82;;;;;;;;;;10537856;28;20044;-72
2022/01/30 01:08:32;;;;;;;19.05;11.75;;;;;;;;;;10519772;28;20028;-72
2022/01/30 01:23:53;;;;;;;17.08;9.65;;;;;;;;;;10537507;28;20016;-76
2022/01/30 01:28:53;;;;;;;22.75;10.15;;;;;;;;;;10518833;28;20073;-71
2022/01/30 01:39:13;;;;;;;21.48;10.25;;;;;;;;;;10537357;28;20429;-71
2022/01/30 01:44:17;;;;;;;14.85;8.77;;;;;;;;;;10536948;28;20036;-74
2022/01/30 01:49:27;;;;;;;15.00;8.95;;;;;;;;;;10536303;28;20031;-76
2022/01/30 01:54:27;;;;;;;22.65;10.73;;;;;;;;;;10517814;28;20021;-73
2022/01/30 01:59:28;;;;;;;13.52;8.52;;;;;;;;;;10517779;28;20035;-75
2022/01/30 02:04:28;;;;;;;12.85;9.43;;;;;;;;;;10534526;28;20115;-72
2022/01/30 02:09:31;;;;;;;13.98;8.18;;;;;;;;;;10535902;28;20494;-73
2022/01/30 02:14:54;;;;;;;14.57;10.18;;;;;;;;;;10534078;28;20036;-72
2022/01/30 02:25:38;;;;;;;13.35;11.20;;;;;;;;;;10534732;28;20497;-70
2022/01/30 02:30:43;;;;;;;15.60;10.00;;;;;;;;;;10516495;28;20107;-74
2022/01/30 02:35:43;;;;;;;15.93;9.10;;;;;;;;;;10516247;28;20656;-71
2022/01/30 02:40:47;;;;;;;14.68;9.18;;;;;;;;;;10533101;28;20118;-72
2022/01/30 02:46:00;;;;;;;15.35;9.50;;;;;;;;;;10533980;28;20055;-70
2022/01/30 02:51:10;;;;;;;12.82;10.20;;;;;;;;;;10532560;28;20036;-69
2022/01/30 02:56:11;;;;;;;17.73;9.30;;;;;;;;;;10533626;28;20024;-73
2022/01/30 03:01:11;;;;;;;15.05;8.15;;;;;;;;;;10533383;28;20032;-77
2022/01/30 03:06:11;;;;;;;14.87;8.23;;;;;;;;;;10531356;28;20036;-71
2022/01/30 03:11:12;;;;;;;15.50;9.33;;;;;;;;;;10531744;28;20536;-75
2022/01/30 03:16:12;;;;;;;12.60;8.13;;;;;;;;;;10514197;28;20270;-70
2022/01/30 03:21:12;;;;;;;14.23;9.10;;;;;;;;;;10532504;28;20055;-73
2022/01/30 03:26:14;;;;;;;10.67;6.57;;;;;;;;;;10532497;28;20856;-71
2022/01/30 03:31:17;;;;;;;16.05;7.35;;;;;;;;;;10514600;28;20289;-71
2022/01/30 03:36:18;;;;;;;19.52;8.93;;;;;;;;;;10530686;28;20036;-71
2022/01/30 03:41:18;;;;;;;19.10;9.73;;;;;;;;;;10530336;28;20473;-71
2022/01/30 03:46:19;;;;;;;21.85;9.38;;;;;;;;;;10530409;28;20024;-71
2022/01/30 03:51:19;;;;;;;15.27;9.05;;;;;;;;;;10530018;28;20020;-70
2022/01/30 03:56:19;;;;;;;16.85;9.88;;;;;;;;;;10529935;28;20016;-74
2022/01/30 04:01:20;;;;;;;18.80;8.75;;;;;;;;;;10530367;28;20024;-74
2022/01/30 04:06:20;;;;;;;31.52;9.35;;;;;;;;;;10529538;28;20114;-70
2022/01/30 04:11:21;;;;;;;10.25;6.78;;;;;;;;;;10529175;28;20035;-78
2022/01/30 04:16:21;;;;;;;12.77;7.72;;;;;;;;;;10513113;28;20024;-74
2022/01/30 04:21:21;;;;;;;25.55;8.25;;;;;;;;;;10528910;28;20044;-71
2022/01/30 04:26:22;;;;;;;17.55;9.13;;;;;;;;;;10528352;28;20024;-72
2022/01/30 04:31:22;;;;;;;19.42;8.98;;;;;;;;;;10528210;28;20024;-70
2022/01/30 04:36:28;;;;;;;18.17;9.57;;;;;;;;;;10512307;28;20597;-71
2022/01/30 04:41:54;;;;;;;13.07;7.88;;;;;;;;;;10512448;28;20254;-72
2022/01/30 05:07:43;;;;;;;13.93;6.82;;;;;;;;;;10529547;28;20032;-72
2022/01/30 05:12:53;;;;;;;17.45;9.60;;;;;;;;;;10529567;28;20032;-70
2022/01/30 05:17:54;;;;;;;17.98;8.85;;;;;;;;;;10511684;28;20035;-78
2022/01/30 05:22:55;;;;;;;18.10;6.90;;;;;;;;;;10511359;28;20441;-72
2022/01/30 05:27:55;;;;;;;13.73;8.00;;;;;;;;;;10527353;28;20477;-73
2022/01/30 05:32:56;;;;;;;19.83;8.73;;;;;;;;;;10550856;28;20019;-78
2022/01/30 05:37:56;;;;;;;16.45;9.27;;;;;;;;;;10553170;28;20138;-72
2022/01/30 05:42:57;;;;;;;14.95;9.10;;;;;;;;;;10531585;28;20032;-71
2022/01/30 05:48:03;;;;;;;15.27;7.25;;;;;;;;;;10540773;28;20024;-71
2022/01/30 05:53:03;;;;;;;12.73;7.70;;;;;;;;;;10579681;28;20557;-72
2022/01/30 05:58:03;;;;;;;21.20;9.10;;;;;;;;;;10537161;28;20039;-71
2022/01/30 06:03:04;;;;;;;12.83;7.83;;;;;;;;;;10518697;28;20028;-71
2022/01/30 06:08:17;;;;;;;16.73;7.43;;;;;;;;;;10518354;28;20116;-72
2022/01/30 06:13:17;;;;;;;13.18;7.50;;;;;;;;;;10535629;28;20032;-72
2022/01/30 06:18:17;;;;;;;19.45;8.65;;;;;;;;;;10534155;28;20854;-74
2022/01/30 06:23:17;;;;;;;18.83;10.73;;;;;;;;;;10549240;28;20554;-72
2022/01/30 06:28:18;;;;;;;17.83;9.75;;;;;;;;;;10558929;28;20170;-72
2022/01/30 06:33:18;;;;;;;21.15;10.98;;;;;;;;;;10558113;28;20672;-72
2022/01/30 06:38:19;;;;;;;19.50;11.25;;;;;;;;;;10557800;28;20035;-72
2022/01/30 06:43:19;;;;;;;14.45;9.15;;;;;;;;;;10558076;28;20031;-72
2022/01/30 06:48:19;;;;;;;15.43;8.63;;;;;;;;;;10575702;28;20032;-76
2022/01/30 06:53:20;;;;;;;16.05;9.35;;;;;;;;;;10549929;28;20024;-71
2022/01/30 06:58:20;;;;;;;12.60;6.23;;;;;;;;;;10553969;28;20054;-75
2022/01/30 07:03:20;;;;;;;12.57;8.47;;;;;;;;;;10554085;28;20493;-70
2022/01/30 07:08:20;;;;;;;13.82;7.50;;;;;;;;;;10535401;28;20454;-70
2022/01/30 07:13:21;;;;;;;16.70;7.40;;;;;;;;;;10542288;28;20396;-71
2022/01/30 07:18:21;;;;;;;17.63;9.93;;;;;;;;;;10555012;28;20030;-72
2022/01/30 07:23:21;;;;;;;30.80;13.57;;;;;;;;;;10554046;28;20062;-77
2022/01/30 07:28:22;;;;;;;29.73;10.48;;;;;;;;;;10554205;28;20031;-72
2022/01/30 07:33:22;;;;;;;31.13;12.77;;;;;;;;;;10529502;28;20607;-76
2022/01/30 07:38:23;;;;;;;27.95;12.25;;;;;;;;;;10529072;28;20819;-75
2022/01/30 07:43:24;;;;;;;26.88;13.25;;;;;;;;;;10530736;28;20076;-76
2022/01/30 07:48:24;;;;;;;28.10;11.85;;;;;;;;;;10512175;28;20048;-75
2022/01/30 07:53:24;;;;;;;21.58;11.93;;;;;;;;;;10539290;28;20127;-76
2022/01/30 07:58:25;;;;;;;19.13;9.10;;;;;;;;;;10512393;28;20032;-70
2022/01/30 08:03:25;;;;;;;23.85;9.27;;;;;;;;;;10511637;28;20262;-75
2022/01/30 08:08:25;;;;;;;29.90;11.07;;;;;;;;;;10527346;28;20032;-77
2022/01/30 08:13:26;;;;;;;20.73;10.75;;;;;;;;;;10546809;28;20278;-74
2022/01/30 08:18:26;;;;;;;27.48;10.40;;;;;;;;;;10552943;28;20035;-75
2022/01/30 08:23:28;;;;;;;21.15;10.07;;;;;;;;;;10553775;28;20065;-71
2022/01/30 08:28:29;;;;;;;20.23;8.68;;;;;;;;;;10570947;28;20042;-74
2022/01/30 08:33:29;;;;;;;24.98;10.15;;;;;;;;;;10551536;28;20050;-71
2022/01/30 08:38:30;;;;;;;17.70;7.77;;;;;;;;;;10552579;28;20031;-76
2022/01/30 08:43:30;;;;;;;22.20;8.05;;;;;;;;;;10531642;28;20028;-71
2022/01/30 08:48:32;;;;;;;22.08;8.90;;;;;;;;;;10512634;28;20438;-77
2022/01/30 08:53:33;;;;;;;23.77;9.50;;;;;;;;;;10552648;28;20119;-73
2022/01/30 08:58:33;;;;;;;23.15;9.07;;;;;;;;;;10552824;28;20483;-77
2022/01/30 09:03:33;;;;;;;20.35;8.90;;;;;;;;;;10538820;28;20032;-72
2022/01/30 09:08:34;;;;;;;26.10;9.57;;;;;;;;;;10510817;28;20470;-75
2022/01/30 09:13:34;;;;;;;27.17;10.40;;;;;;;;;;10510219;28;20066;-72
2022/01/30 09:18:37;;;;;;;24.42;10.00;;;;;;;;;;10550856;28;20101;-72
2022/01/30 09:23:38;;;;;;;26.50;10.27;;;;;;;;;;10578834;28;20028;-72
2022/01/30 09:28:38;;;;;;;17.53;9.60;;;;;;;;;;10535249;28;20024;-75
2022/01/30 09:33:39;;;;;;;26.75;10.60;;;;;;;;;;10528446;28;20376;-74
2022/01/30 09:38:40;;;;;;;35.10;10.02;;;;;;;;;;10559188;28;20055;-72
2022/01/30 09:43:40;;;;;;;24.02;8.57;;;;;;;;;;10559833;28;20023;-72
2022/01/30 09:48:41;;;;;;;23.50;8.60;;;;;;;;;;10558438;28;20027;-71
2022/01/30 09:53:41;;;;;;;23.67;10.55;;;;;;;;;;10560137;28;20020;-70
2022/01/30 09:58:41;;;;;;;60.38;21.75;;;;;;;;;;10533934;28;20028;-73
2022/01/30 10:03:42;;;;;;;26.05;10.43;;;;;;;;;;10517119;28;20035;-70
2022/01/30 10:08:44;;;;;;;23.00;9.40;;;;;;;;;;10515846;28;20512;-70
2022/01/30 10:13:45;;;;;;;182.65;50.33;;;;;;;;;;10533922;28;20035;-75
2022/01/30 10:18:45;;;;;;;203.60;58.53;;;;;;;;;;10558656;28;20525;-71
2022/01/30 10:23:46;;;;;;;37.13;12.60;;;;;;;;;;10533447;28;20036;-71
2022/01/30 10:28:46;;;;;;;18.98;8.70;;;;;;;;;;10514203;28;20036;-73
2022/01/30 10:33:51;;;;;;;20.80;8.00;;;;;;;;;;10532350;28;20378;-71
2022/01/30 10:38:59;;;;;;;24.35;8.30;;;;;;;;;;10522419;28;20386;-72
2022/01/30 10:44:01;;;;;;;18.33;8.75;;;;;;;;;;10533786;28;20497;-71
2022/01/30 10:49:03;;;;;;;15.60;7.60;;;;;;;;;;10525736;28;20489;-72
2022/01/30 10:54:07;;;;;;;21.35;7.13;;;;;;;;;;10554510;28;20035;-71
2022/01/30 10:59:09;;;;;;;18.05;8.20;;;;;;;;;;10559600;28;20123;-77
2022/01/30 11:04:27;;;;;;;17.13;7.50;;;;;;;;;;10556131;28;20562;-72
2022/01/30 11:09:41;;;;;;;13.10;6.32;;;;;;;;;;10555417;28;20039;-72
2022/01/30 11:19:51;;;;;;;16.20;6.60;;;;;;;;;;10574118;28;20044;-72
2022/01/30 11:25:02;;;;;;;21.80;6.78;;;;;;;;;;10530240;28;20047;-72
2022/01/30 11:30:03;;;;;;;18.15;7.88;;;;;;;;;;10548488;28;20032;-72
2022/01/30 11:35:04;;;;;;;25.17;8.45;;;;;;;;;;10570295;28;20061;-72
2022/01/30 11:40:14;;;;;;;16.27;8.40;;;;;;;;;;10552017;28;20096;-71
2022/01/30 11:45:15;;;;;;;18.77;9.15;;;;;;;;;;10576677;27;20042;-71
2022/01/30 11:50:25;;;;;;;25.40;10.13;;;;;;;;;;10598080;27;20042;-72
2022/01/30 11:55:48;;;;;;;26.48;9.30;;;;;;;;;;10524177;28;20127;-71
2022/01/30 12:00:49;;;;;;;22.77;9.48;;;;;;;;;;10512125;28;20027;-71
2022/01/30 12:05:50;;;;;;;20.83;10.38;;;;;;;;;;10511912;28;20061;-72
2022/01/30 12:10:51;;;;;;;23.60;9.98;;;;;;;;;;10512449;28;20067;-79
2022/01/30 12:15:51;;;;;;;21.80;11.17;;;;;;;;;;10537394;28;20059;-76
2022/01/30 12:20:59;;;;;;;31.20;13.00;;;;;;;;;;10553383;28;20051;-76
2022/01/30 12:26:04;;;;;;;;;;;;;;;;;;10573035;28;20702;-74
2022/01/30 12:31:22;;;;;;;23.67;10.63;;;;;;;;;;10571375;28;19998;-76
2022/01/30 12:36:23;;;;;;;24.15;10.40;;;;;;;;;;10552893;28;20405;-74
2022/01/30 12:41:24;;;;;;;27.90;10.90;;;;;;;;;;10570659;28;20034;-75
2022/01/30 12:46:26;;;;;;;30.85;10.32;;;;;;;;;;10552957;28;20027;-77
2022/01/30 12:51:27;;;;;;;21.17;11.57;;;;;;;;;;10533956;28;20036;-76
2022/01/30 12:56:27;;;;;;;28.00;11.35;;;;;;;;;;10539956;28;20028;-76
2022/01/30 13:01:28;;;;;;;22.30;11.47;;;;;;;;;;10550007;28;20485;-75
2022/01/30 13:07:01;;;;;;;23.80;10.27;;;;;;;;;;10563916;28;20501;-76
2022/01/30 13:12:11;;;;;;;25.67;10.88;;;;;;;;;;10532514;28;20046;-73
2022/01/30 13:17:11;;;;;;;27.83;10.90;;;;;;;;;;10520805;28;20511;-75
2022/01/30 13:22:24;;;;;;;22.97;9.67;;;;;;;;;;10548480;28;20083;-75
2022/01/30 13:27:25;;;;;;;29.83;10.85;;;;;;;;;;10582546;28;20031;-74
2022/01/30 13:32:28;;;;;;;29.38;11.75;;;;;;;;;;10550681;28;20413;-76
2022/01/30 13:37:32;;;;;;;27.27;11.82;;;;;;;;;;10527047;28;20036;-74
2022/01/30 13:47:49;;;;;;;32.42;11.70;;;;;;;;;;10534397;28;20038;-70
2022/01/30 13:53:01;;;;;;;25.95;11.52;;;;;;;;;;10554424;28;20493;-71
2022/01/30 13:58:01;;;;;;;27.38;10.07;;;;;;;;;;10532985;28;20527;-71
2022/01/30 14:03:05;;;;;;;29.50;11.02;;;;;;;;;;10534551;28;20036;-72
2022/01/30 14:08:12;;;;;;;26.60;10.05;;;;;;;;;;10549166;28;20035;-72
2022/01/30 14:13:17;;;;;;;26.67;10.98;;;;;;;;;;10547693;28;20028;-71
2022/01/30 14:18:20;;;;;;;23.80;10.38;;;;;;;;;;10524440;28;20031;-71
2022/01/30 14:23:21;;;;;;;34.15;10.65;;;;;;;;;;10554789;28;20050;-72
2022/01/30 14:28:26;;;;;;;30.35;11.43;;;;;;;;;;10549099;28;20031;-70
2022/01/30 14:33:28;;;;;;;29.33;12.52;;;;;;;;;;10556986;28;20027;-72
2022/01/30 14:38:28;;;;;;;19.48;8.90;;;;;;;;;;10575077;28;20039;-72
2022/01/30 14:43:28;;;;;;;38.97;11.68;;;;;;;;;;10555452;28;20526;-74
2022/01/30 14:48:29;;;;;;;23.80;11.63;;;;;;;;;;10575112;28;20084;-71
2022/01/30 14:53:29;;;;;;;30.57;11.77;;;;;;;;;;10559278;28;20274;-69
2022/01/30 14:58:29;;;;;;;22.13;11.15;;;;;;;;;;10557445;28;20038;-75
2022/01/30 15:03:32;;;;;;;32.83;13.38;;;;;;;;;;10529032;28;20039;-75
2022/01/30 15:08:33;;;;;;;38.38;16.17;;;;;;;;;;10532433;28;20052;-75
2022/01/30 15:13:37;;;;;;;37.60;15.37;;;;;;;;;;10543351;28;20039;-75
2022/01/30 15:18:42;;;;;;;29.08;12.25;;;;;;;;;;10580639;28;20552;-70
2022/01/30 15:23:43;;;;;;;22.98;9.32;;;;;;;;;;10563055;28;20073;-74
2022/01/30 15:28:43;;;;;;;16.17;7.97;;;;;;;;;;10542729;28;20093;-72
2022/01/30 15:33:44;;;;;;;29.92;8.13;;;;;;;;;;10527301;28;20043;-72
2022/01/30 15:38:44;;;;;;;19.48;7.28;;;;;;;;;;10501648;28;20123;-71
2022/01/30 15:43:45;;;;;;;22.87;5.23;;;;;;;;;;10500624;28;20064;-72
2022/01/30 15:54:04;;;;;;;;;;;;;;;;;;10573676;28;20031;-72
2022/01/30 15:59:04;;;;;;;8.57;3.35;;;;;;;;;;10556914;27;19907;-71
2022/01/30 16:04:05;;;;;;;7.60;4.00;;;;;;;;;;10587574;27;20146;-73
2022/01/30 16:19:28;;;;;;;11.30;5.80;;;;;;;;;;10615472;27;20051;-76
2022/01/30 16:24:28;;;;;;;11.90;4.88;;;;;;;;;;10581480;27;20035;-74
2022/01/30 16:29:29;;;;;;;11.53;5.73;;;;;;;;;;10534842;28;20036;-71
2022/01/30 16:34:29;;;;;;;10.80;5.77;;;;;;;;;;10529312;28;20470;-75
2022/01/30 16:39:30;;;;;;;13.63;6.53;;;;;;;;;;10530129;28;20174;-70
2022/01/30 16:44:38;;;;;;;10.32;5.85;;;;;;;;;;10512045;28;20035;-71
2022/01/30 16:49:38;;;;;;;9.13;5.07;;;;;;;;;;10521248;28;20028;-71
2022/01/30 16:54:38;;;;;;;9.80;5.30;;;;;;;;;;10552956;28;20031;-70
2022/01/30 16:59:39;;;;;;;6.20;3.80;;;;;;;;;;10571973;28;20028;-75
2022/01/30 17:04:39;;;;;;;6.60;3.22;;;;;;;;;;10569423;28;20265;-71
2022/01/30 17:09:40;;;;;;;10.20;4.07;;;;;;;;;;10549657;28;20039;-70
2022/01/30 17:14:41;;;;;;;4.35;2.75;;;;;;;;;;10550914;28;20046;-72
2022/01/30 17:19:41;;;;;;;7.82;3.65;;;;;;;;;;10533068;28;20371;-72
2022/01/30 17:24:41;;;;;;;6.88;3.80;;;;;;;;;;10553148;28;20042;-79
2022/01/30 17:29:42;;;;;;;4.72;3.20;;;;;;;;;;10567940;28;20042;-72
2022/01/30 17:34:42;;;;;;;10.45;3.45;;;;;;;;;;10537780;28;20032;-73
2022/01/30 17:39:42;;;;;;;5.78;2.63;;;;;;;;;;10578048;28;20031;-72
2022/01/30 17:44:43;;;;;;;5.63;2.37;;;;;;;;;;10579167;28;20039;-76
2022/01/30 17:49:44;;;;;;;6.78;2.50;;;;;;;;;;10577239;28;20039;-72
2022/01/30 17:54:44;;;;;;;4.60;3.00;;;;;;;;;;10559299;28;20028;-72
2022/01/30 17:59:45;;;;;;;5.87;2.43;;;;;;;;;;10558837;28;20529;-70
2022/01/30 18:04:45;;;;;;;5.28;2.60;;;;;;;;;;10558635;28;20560;-72
2022/01/30 18:09:46;;;;;;;8.68;3.03;;;;;;;;;;10578350;28;20032;-70
2022/01/30 18:14:46;;;;;;;9.95;3.40;;;;;;;;;;10533378;28;20035;-70
2022/01/30 18:19:47;;;;;;;6.75;3.67;;;;;;;;;;10533502;28;20048;-72
2022/01/30 18:24:47;;;;;;;6.27;3.50;;;;;;;;;;10559747;28;20041;-72
2022/01/30 18:29:47;;;;;;;8.57;3.65;;;;;;;;;;10538571;28;20406;-70
2022/01/30 18:34:48;;;;;;;10.80;3.95;;;;;;;;;;10533912;28;20028;-71
2022/01/30 18:44:49;;;;;;;6.85;3.63;;;;;;;;;;10575862;28;20032;-72
2022/01/30 18:49:50;;;;;;;14.20;4.57;;;;;;;;;;10555934;28;20036;-71
2022/01/30 18:54:51;;;;;;;12.50;4.40;;;;;;;;;;10555621;28;20088;-71
2022/01/30 18:59:51;;;;;;;12.20;4.05;;;;;;;;;;10563854;28;20462;-72
2022/01/30 19:04:53;;;;;;;13.50;3.70;;;;;;;;;;10572567;28;20592;-71
2022/01/30 19:09:54;;;;;;;8.68;4.38;;;;;;;;;;10556164;28;20031;-72
2022/01/30 19:14:54;;;;;;;7.13;3.85;;;;;;;;;;10567746;27;20035;-71
2022/01/30 19:19:55;;;;;;;7.88;3.78;;;;;;;;;;10573956;27;20561;-71
2022/01/30 19:24:55;;;;;;;14.20;4.88;;;;;;;;;;10551341;28;20096;-71
2022/01/30 19:30:00;;;;;;;10.38;3.40;;;;;;;;;;10553297;28;20052;-77
2022/01/30 19:35:00;;;;;;;6.97;3.58;;;;;;;;;;10553333;28;20027;-71
2022/01/30 19:40:00;;;;;;;10.77;4.20;;;;;;;;;;10536422;27;20035;-71
2022/01/30 19:45:01;;;;;;;10.23;4.40;;;;;;;;;;10536254;28;20040;-73
2022/01/30 19:50:03;;;;;;;12.75;4.10;;;;;;;;;;10543128;28;20042;-74
2022/01/30 19:55:04;;;;;;;13.18;4.30;;;;;;;;;;10567071;28;20031;-71
2022/01/30 20:00:06;;;;;;;13.98;4.32;;;;;;;;;;10567586;28;20112;-71
2022/01/30 20:05:06;;;;;;;9.48;4.60;;;;;;;;;;10548800;28;20404;-71
2022/01/30 20:10:07;;;;;;;12.77;5.53;;;;;;;;;;10545283;28;20031;-73
2022/01/30 20:15:08;;;;;;;13.88;3.10;;;;;;;;;;10532764;28;20118;-71
2022/01/30 20:20:09;;;;;;;23.15;3.55;;;;;;;;;;10546392;28;20109;-71
2022/01/30 20:25:10;;;;;;;13.02;3.47;;;;;;;;;;10569708;28;20032;-71
2022/01/30 20:30:10;;;;;;;13.60;2.57;;;;;;;;;;10543059;28;20040;-71
2022/01/30 20:35:10;;;;;;;7.35;3.03;;;;;;;;;;10529412;28;20262;-71
2022/01/30 20:40:11;;;;;;;26.30;3.95;;;;;;;;;;10529384;28;20032;-71
2022/01/30 20:45:12;;;;;;;19.40;4.47;;;;;;;;;;10511277;28;20028;-71
2022/01/30 20:50:13;;;;;;;22.40;9.82;;;;;;;;;;10560979;28;20463;-71
2022/01/30 20:55:13;;;;;;;19.35;9.38;;;;;;;;;;10579509;28;20397;-72
2022/01/30 21:00:14;;;;;;;23.80;11.45;;;;;;;;;;10543989;27;20504;-77
2022/01/30 21:05:14;;;;;;;31.50;12.65;;;;;;;;;;10532036;28;20409;-72
2022/01/30 21:10:22;;;;;;;27.98;14.20;;;;;;;;;;10518180;28;20035;-74
2022/01/30 21:15:24;;;;;;;30.35;14.85;;;;;;;;;;10530890;28;20149;-72
2022/01/30 21:20:24;;;;;;;31.65;15.68;;;;;;;;;;10539776;28;20043;-71
2022/01/30 21:25:26;;;;;;;31.60;14.80;;;;;;;;;;10575177;28;20023;-72
2022/01/30 21:30:26;;;;;;;33.40;14.27;;;;;;;;;;10558968;28;20274;-72
2022/01/30 21:35:26;;;;;;;34.13;14.82;;;;;;;;;;10519054;28;20024;-76
2022/01/30 21:40:27;;;;;;;32.28;12.45;;;;;;;;;;10518699;28;20174;-77
2022/01/30 21:45:27;;;;;;;30.40;12.52;;;;;;;;;;10517911;28;20039;-76
2022/01/30 21:50:27;;;;;;;25.43;11.77;;;;;;;;;;10554379;28;20493;-76
2022/01/30 21:55:28;;;;;;;16.00;4.13;;;;;;;;;;10560325;28;20261;-70
2022/01/30 22:00:28;;;;;;;14.38;5.25;;;;;;;;;;10560090;28;20038;-71
2022/01/30 22:05:28;;;;;;;9.13;4.00;;;;;;;;;;10559788;28;20031;-71
2022/01/30 22:10:29;;;;;;;7.83;3.47;;;;;;;;;;10542761;28;20060;-74
2022/01/30 22:15:29;;;;;;;10.25;3.53;;;;;;;;;;10566869;27;20264;-72
2022/01/30 22:20:30;;;;;;;23.33;4.00;;;;;;;;;;10593729;27;20043;-71
2022/01/30 22:25:30;;;;;;;11.77;2.90;;;;;;;;;;10601621;27;20024;-70
2022/01/30 22:30:32;;;;;;;18.38;3.17;;;;;;;;;;10601029;27;20123;-74
2022/01/30 22:35:33;;;;;;;31.83;3.67;;;;;;;;;;10584053;27;20114;-70
2022/01/30 22:40:35;;;;;;;16.25;3.80;;;;;;;;;;10598003;27;20035;-71
2022/01/30 22:45:36;;;;;;;15.07;2.97;;;;;;;;;;10534282;28;20028;-72
2022/01/30 22:50:36;;;;;;;32.08;4.80;;;;;;;;;;10533839;28;20040;-70
2022/01/30 22:55:37;;;;;;;10.57;3.33;;;;;;;;;;10532748;28;20116;-70
2022/01/30 23:00:37;;;;;;;7.10;4.90;;;;;;;;;;10532557;28;20130;-71
2022/01/30 23:05:38;;;;;;;16.33;4.40;;;;;;;;;;10532016;28;20036;-68
2022/01/30 23:10:38;;;;;;;13.15;3.55;;;;;;;;;;10532059;28;20490;-70
2022/01/30 23:15:38;;;;;;;13.20;3.30;;;;;;;;;;10515155;28;20042;-75
2022/01/30 23:20:38;;;;;;;17.13;3.72;;;;;;;;;;10531461;28;20102;-70
2022/01/30 23:25:39;;;;;;;30.48;4.63;;;;;;;;;;10532875;28;20036;-75
2022/01/30 23:30:39;;;;;;;19.23;4.50;;;;;;;;;;10531313;28;20433;-72
2022/01/30 23:35:39;;;;;;;15.90;3.57;;;;;;;;;;10514337;28;20394;-72
2022/01/30 23:40:47;;;;;;;12.07;3.83;;;;;;;;;;10530496;28;20062;-71
2022/01/30 23:45:47;;;;;;;11.23;3.92;;;;;;;;;;10532072;28;20050;-71
2022/01/30 23:50:48;;;;;;;15.73;3.00;;;;;;;;;;10530282;28;20062;-75
2022/01/30 23:55:48;;;;;;;6.40;2.85;;;;;;;;;;10530088;28;20028;-76
